sensor_id;sensor_type;location;lat;lon;timestamp;P1;durP1;ratioP1;P2;durP2;ratioP2
23782;SDS011;12071;50.850;4.446;2024-01-15T00:01:26;40.03;;;17.90;;
23782;SDS011;12071;50.850;4.446;2024-01-15T00:03:52;42.00;;;18.45;;
23782;SDS011;12071;50.850;4.446;2024-01-15T00:06:18;38.45;;;17.83;;
23782;SDS011;12071;50.850;4.446;2024-01-15T00:08:43;38.30;;;17.17;;
23782;SDS011;12071;50.850;4.446;2024-01-15T00:11:09;37.58;;;16.52;;
23782;SDS011;12071;50.850;4.446;2024-01-15T00:13:34;37.55;;;17.63;;
23782;SDS011;12071;50.850;4.446;2024-01-15T00:16:00;36.42;;;17.55;;
23782;SDS011;12071;50.850;4.446;2024-01-15T00:18:26;39.65;;;17.92;;
23782;SDS011;12071;50.850;4.446;2024-01-15T00:20:51;36.90;;;17.02;;
23782;SDS011;12071;50.850;4.446;2024-01-15T00:23:17;35.50;;;17.17;;
23782;SDS011;12071;50.850;4.446;2024-01-15T00:25:42;36.05;;;17.08;;
23782;SDS011;12071;50.850;4.446;2024-01-15T00:28:08;34.83;;;14.95;;
23782;SDS011;12071;50.850;4.446;2024-01-15T00:30:33;33.33;;;15.68;;
23782;SDS011;12071;50.850;4.446;2024-01-15T00:32:59;35.17;;;15.85;;
23782;SDS011;12071;50.850;4.446;2024-01-15T00:35:25;30.20;;;15.38;;
23782;SDS011;12071;50.850;4.446;2024-01-15T00:37:50;31.77;;;14.52;;
23782;SDS011;12071;50.850;4.446;2024-01-15T00:40:16;31.45;;;15.00;;
23782;SDS011;12071;50.850;4.446;2024-01-15T00:42:41;28.98;;;14.48;;
23782;SDS011;12071;50.850;4.446;2024-01-15T00:45:08;30.85;;;14.02;;
23782;SDS011;12071;50.850;4.446;2024-01-15T00:47:34;27.20;;;14.25;;
23782;SDS011;12071;50.850;4.446;2024-01-15T00:49:59;27.23;;;14.00;;
23782;SDS011;12071;50.850;4.446;2024-01-15T00:52:25;25.10;;;13.07;;
23782;SDS011;12071;50.850;4.446;2024-01-15T00:54:51;25.90;;;12.77;;
23782;SDS011;12071;50.850;4.446;2024-01-15T00:57:16;27.60;;;13.13;;
23782;SDS011;12071;50.850;4.446;2024-01-15T00:59:44;27.67;;;11.60;;
23782;SDS011;12071;50.850;4.446;2024-01-15T01:02:10;25.20;;;11.43;;
23782;SDS011;12071;50.850;4.446;2024-01-15T01:04:35;22.77;;;11.75;;
23782;SDS011;12071;50.850;4.446;2024-01-15T01:07:01;22.83;;;10.80;;
23782;SDS011;12071;50.850;4.446;2024-01-15T01:09:27;23.83;;;11.60;;
23782;SDS011;12071;50.850;4.446;2024-01-15T01:11:55;19.75;;;10.95;;
23782;SDS011;12071;50.850;4.446;2024-01-15T01:14:21;23.55;;;11.00;;
23782;SDS011;12071;50.850;4.446;2024-01-15T01:16:46;17.90;;;9.13;;
23782;SDS011;12071;50.850;4.446;2024-01-15T01:19:12;19.25;;;9.30;;
23782;SDS011;12071;50.850;4.446;2024-01-15T01:21:38;20.00;;;9.50;;
23782;SDS011;12071;50.850;4.446;2024-01-15T01:24:03;18.67;;;9.38;;
23782;SDS011;12071;50.850;4.446;2024-01-15T01:26:29;19.65;;;9.23;;
23782;SDS011;12071;50.850;4.446;2024-01-15T01:28:55;15.80;;;8.75;;
23782;SDS011;12071;50.850;4.446;2024-01-15T01:31:21;16.42;;;8.32;;
23782;SDS011;12071;50.850;4.446;2024-01-15T01:33:48;16.77;;;8.48;;
23782;SDS011;12071;50.850;4.446;2024-01-15T01:36:13;14.98;;;8.25;;
23782;SDS011;12071;50.850;4.446;2024-01-15T01:38:39;15.38;;;8.27;;
23782;SDS011;12071;50.850;4.446;2024-01-15T01:41:05;16.23;;;8.35;;
23782;SDS011;12071;50.850;4.446;2024-01-15T01:43:30;14.63;;;8.35;;
23782;SDS011;12071;50.850;4.446;2024-01-15T01:45:56;13.48;;;8.25;;
23782;SDS011;12071;50.850;4.446;2024-01-15T01:48:25;16.58;;;8.45;;
23782;SDS011;12071;50.850;4.446;2024-01-15T01:50:52;14.57;;;8.73;;
23782;SDS011;12071;50.850;4.446;2024-01-15T01:53:20;13.93;;;8.65;;
23782;SDS011;12071;50.850;4.446;2024-01-15T01:55:46;15.65;;;7.70;;
23782;SDS011;12071;50.850;4.446;2024-01-15T01:58:13;16.50;;;8.23;;
23782;SDS011;12071;50.850;4.446;2024-01-15T02:00:39;13.43;;;7.40;;
23782;SDS011;12071;50.850;4.446;2024-01-15T02:03:05;12.07;;;7.78;;
23782;SDS011;12071;50.850;4.446;2024-01-15T02:05:31;12.05;;;7.03;;
23782;SDS011;12071;50.850;4.446;2024-01-15T02:07:58;13.15;;;7.05;;
23782;SDS011;12071;50.850;4.446;2024-01-15T02:10:23;10.55;;;6.70;;
23782;SDS011;12071;50.850;4.446;2024-01-15T02:12:49;13.43;;;7.25;;
23782;SDS011;12071;50.850;4.446;2024-01-15T02:15:14;12.15;;;6.18;;
23782;SDS011;12071;50.850;4.446;2024-01-15T02:20:25;12.32;;;6.57;;
23782;SDS011;12071;50.850;4.446;2024-01-15T02:22:51;9.95;;;6.05;;
23782;SDS011;12071;50.850;4.446;2024-01-15T02:25:17;12.23;;;6.30;;
23782;SDS011;12071;50.850;4.446;2024-01-15T02:27:43;10.68;;;6.53;;
23782;SDS011;12071;50.850;4.446;2024-01-15T02:30:11;11.10;;;6.35;;
23782;SDS011;12071;50.850;4.446;2024-01-15T02:32:37;11.45;;;6.53;;
23782;SDS011;12071;50.850;4.446;2024-01-15T02:35:04;10.68;;;5.88;;
23782;SDS011;12071;50.850;4.446;2024-01-15T02:37:29;8.40;;;5.57;;
23782;SDS011;12071;50.850;4.446;2024-01-15T02:39:55;10.40;;;6.13;;
23782;SDS011;12071;50.850;4.446;2024-01-15T02:42:21;11.48;;;6.10;;
23782;SDS011;12071;50.850;4.446;2024-01-15T02:44:46;10.70;;;6.32;;
23782;SDS011;12071;50.850;4.446;2024-01-15T02:47:13;14.00;;;6.95;;
23782;SDS011;12071;50.850;4.446;2024-01-15T02:49:39;11.85;;;6.85;;
23782;SDS011;12071;50.850;4.446;2024-01-15T02:52:05;13.00;;;6.28;;
23782;SDS011;12071;50.850;4.446;2024-01-15T02:54:31;10.82;;;6.97;;
23782;SDS011;12071;50.850;4.446;2024-01-15T02:56:56;10.07;;;6.82;;
23782;SDS011;12071;50.850;4.446;2024-01-15T02:59:22;13.20;;;8.02;;
23782;SDS011;12071;50.850;4.446;2024-01-15T03:01:47;12.10;;;7.82;;
23782;SDS011;12071;50.850;4.446;2024-01-15T03:04:13;14.55;;;8.90;;
23782;SDS011;12071;50.850;4.446;2024-01-15T03:06:38;13.95;;;9.43;;
23782;SDS011;12071;50.850;4.446;2024-01-15T03:09:04;17.33;;;9.52;;
23782;SDS011;12071;50.850;4.446;2024-01-15T03:11:36;19.67;;;10.70;;
23782;SDS011;12071;50.850;4.446;2024-01-15T03:14:03;25.13;;;10.25;;
23782;SDS011;12071;50.850;4.446;2024-01-15T03:16:28;17.80;;;10.10;;
23782;SDS011;12071;50.850;4.446;2024-01-15T03:18:54;19.63;;;10.90;;
23782;SDS011;12071;50.850;4.446;2024-01-15T03:21:19;18.00;;;10.18;;
23782;SDS011;12071;50.850;4.446;2024-01-15T03:23:45;19.38;;;10.90;;
23782;SDS011;12071;50.850;4.446;2024-01-15T03:26:10;18.73;;;10.68;;
23782;SDS011;12071;50.850;4.446;2024-01-15T03:28:36;22.67;;;11.50;;
23782;SDS011;12071;50.850;4.446;2024-01-15T03:31:01;19.63;;;11.55;;
23782;SDS011;12071;50.850;4.446;2024-01-15T03:33:27;21.38;;;10.85;;
23782;SDS011;12071;50.850;4.446;2024-01-15T03:35:53;17.52;;;10.70;;
23782;SDS011;12071;50.850;4.446;2024-01-15T03:38:18;21.80;;;10.68;;
23782;SDS011;12071;50.850;4.446;2024-01-15T03:40:44;22.85;;;10.65;;
23782;SDS011;12071;50.850;4.446;2024-01-15T03:43:09;20.02;;;10.90;;
23782;SDS011;12071;50.850;4.446;2024-01-15T03:45:35;21.52;;;11.32;;
23782;SDS011;12071;50.850;4.446;2024-01-15T03:48:01;21.75;;;11.65;;
23782;SDS011;12071;50.850;4.446;2024-01-15T03:50:26;25.50;;;12.80;;
23782;SDS011;12071;50.850;4.446;2024-01-15T03:52:52;26.50;;;13.40;;
23782;SDS011;12071;50.850;4.446;2024-01-15T03:55:17;23.58;;;12.98;;
23782;SDS011;12071;50.850;4.446;2024-01-15T03:57:43;29.55;;;14.65;;
23782;SDS011;12071;50.850;4.446;2024-01-15T04:00:09;22.85;;;13.30;;
23782;SDS011;12071;50.850;4.446;2024-01-15T04:02:35;30.70;;;14.30;;
23782;SDS011;12071;50.850;4.446;2024-01-15T04:05:00;30.65;;;15.43;;
23782;SDS011;12071;50.850;4.446;2024-01-15T04:07:26;28.08;;;14.38;;
23782;SDS011;12071;50.850;4.446;2024-01-15T04:09:51;29.02;;;15.23;;
23782;SDS011;12071;50.850;4.446;2024-01-15T04:12:17;30.10;;;15.80;;
23782;SDS011;12071;50.850;4.446;2024-01-15T04:14:42;29.80;;;15.70;;
23782;SDS011;12071;50.850;4.446;2024-01-15T04:17:08;27.02;;;15.15;;
23782;SDS011;12071;50.850;4.446;2024-01-15T04:19:33;31.75;;;15.93;;
23782;SDS011;12071;50.850;4.446;2024-01-15T04:21:59;30.63;;;15.88;;
23782;SDS011;12071;50.850;4.446;2024-01-15T04:24:25;30.02;;;15.07;;
23782;SDS011;12071;50.850;4.446;2024-01-15T04:26:50;29.08;;;16.50;;
23782;SDS011;12071;50.850;4.446;2024-01-15T04:29:16;31.08;;;15.80;;
23782;SDS011;12071;50.850;4.446;2024-01-15T04:31:42;31.55;;;16.27;;
23782;SDS011;12071;50.850;4.446;2024-01-15T04:34:07;30.10;;;15.98;;
23782;SDS011;12071;50.850;4.446;2024-01-15T04:36:38;28.77;;;14.98;;
23782;SDS011;12071;50.850;4.446;2024-01-15T04:39:06;26.10;;;15.63;;
23782;SDS011;12071;50.850;4.446;2024-01-15T04:41:32;28.75;;;15.52;;
23782;SDS011;12071;50.850;4.446;2024-01-15T04:43:58;27.17;;;15.02;;
23782;SDS011;12071;50.850;4.446;2024-01-15T04:46:26;33.42;;;15.57;;
23782;SDS011;12071;50.850;4.446;2024-01-15T04:48:52;27.88;;;14.15;;
23782;SDS011;12071;50.850;4.446;2024-01-15T04:51:17;25.15;;;13.70;;
23782;SDS011;12071;50.850;4.446;2024-01-15T04:53:43;27.17;;;13.98;;
23782;SDS011;12071;50.850;4.446;2024-01-15T04:56:09;25.60;;;13.23;;
23782;SDS011;12071;50.850;4.446;2024-01-15T04:58:35;24.02;;;12.23;;
23782;SDS011;12071;50.850;4.446;2024-01-15T05:01:00;26.00;;;13.50;;
23782;SDS011;12071;50.850;4.446;2024-01-15T05:03:26;22.63;;;12.27;;
23782;SDS011;12071;50.850;4.446;2024-01-15T05:05:52;20.98;;;11.73;;
23782;SDS011;12071;50.850;4.446;2024-01-15T05:08:17;21.50;;;11.45;;
23782;SDS011;12071;50.850;4.446;2024-01-15T05:10:43;26.63;;;12.13;;
23782;SDS011;12071;50.850;4.446;2024-01-15T05:13:08;20.65;;;11.30;;
23782;SDS011;12071;50.850;4.446;2024-01-15T05:15:34;17.85;;;10.52;;
23782;SDS011;12071;50.850;4.446;2024-01-15T05:18:00;19.92;;;9.70;;
23782;SDS011;12071;50.850;4.446;2024-01-15T05:20:25;19.23;;;10.35;;
23782;SDS011;12071;50.850;4.446;2024-01-15T05:22:51;18.55;;;9.18;;
23782;SDS011;12071;50.850;4.446;2024-01-15T05:25:16;14.73;;;8.38;;
23782;SDS011;12071;50.850;4.446;2024-01-15T05:27:42;10.68;;;6.93;;
23782;SDS011;12071;50.850;4.446;2024-01-15T05:30:07;12.95;;;6.05;;
23782;SDS011;12071;50.850;4.446;2024-01-15T05:32:34;11.50;;;5.47;;
23782;SDS011;12071;50.850;4.446;2024-01-15T05:34:59;9.95;;;4.97;;
23782;SDS011;12071;50.850;4.446;2024-01-15T05:37:25;6.93;;;3.95;;
23782;SDS011;12071;50.850;4.446;2024-01-15T05:39:50;7.07;;;4.50;;
23782;SDS011;12071;50.850;4.446;2024-01-15T05:42:16;9.32;;;4.10;;
23782;SDS011;12071;50.850;4.446;2024-01-15T05:44:42;8.52;;;4.28;;
23782;SDS011;12071;50.850;4.446;2024-01-15T05:47:07;7.13;;;3.83;;
23782;SDS011;12071;50.850;4.446;2024-01-15T05:49:33;7.35;;;3.47;;
23782;SDS011;12071;50.850;4.446;2024-01-15T05:51:58;13.07;;;4.22;;
23782;SDS011;12071;50.850;4.446;2024-01-15T05:54:24;7.25;;;3.20;;
23782;SDS011;12071;50.850;4.446;2024-01-15T05:56:49;9.57;;;3.70;;
23782;SDS011;12071;50.850;4.446;2024-01-15T05:59:15;6.07;;;3.08;;
23782;SDS011;12071;50.850;4.446;2024-01-15T06:01:42;6.40;;;3.10;;
23782;SDS011;12071;50.850;4.446;2024-01-15T06:04:07;7.85;;;2.78;;
23782;SDS011;12071;50.850;4.446;2024-01-15T06:06:33;7.07;;;2.80;;
23782;SDS011;12071;50.850;4.446;2024-01-15T06:08:58;6.57;;;2.70;;
23782;SDS011;12071;50.850;4.446;2024-01-15T06:11:33;9.20;;;2.85;;
23782;SDS011;12071;50.850;4.446;2024-01-15T06:13:58;5.50;;;2.20;;
23782;SDS011;12071;50.850;4.446;2024-01-15T06:16:25;4.30;;;2.25;;
23782;SDS011;12071;50.850;4.446;2024-01-15T06:18:51;7.32;;;2.20;;
23782;SDS011;12071;50.850;4.446;2024-01-15T06:21:17;5.88;;;1.83;;
23782;SDS011;12071;50.850;4.446;2024-01-15T06:23:43;8.48;;;1.92;;
23782;SDS011;12071;50.850;4.446;2024-01-15T06:26:08;8.30;;;1.92;;
23782;SDS011;12071;50.850;4.446;2024-01-15T06:28:36;4.38;;;1.48;;
23782;SDS011;12071;50.850;4.446;2024-01-15T06:31:01;6.97;;;1.70;;
23782;SDS011;12071;50.850;4.446;2024-01-15T06:33:27;4.70;;;1.00;;
23782;SDS011;12071;50.850;4.446;2024-01-15T06:35:53;6.97;;;1.70;;
23782;SDS011;12071;50.850;4.446;2024-01-15T06:38:18;6.40;;;1.70;;
23782;SDS011;12071;50.850;4.446;2024-01-15T06:40:44;5.88;;;1.70;;
23782;SDS011;12071;50.850;4.446;2024-01-15T06:43:14;5.57;;;1.88;;
23782;SDS011;12071;50.850;4.446;2024-01-15T06:45:40;6.55;;;1.95;;
23782;SDS011;12071;50.850;4.446;2024-01-15T06:48:06;6.13;;;2.28;;
23782;SDS011;12071;50.850;4.446;2024-01-15T06:50:35;5.63;;;2.30;;
23782;SDS011;12071;50.850;4.446;2024-01-15T06:53:00;4.78;;;2.22;;
23782;SDS011;12071;50.850;4.446;2024-01-15T06:55:26;8.48;;;2.88;;
23782;SDS011;12071;50.850;4.446;2024-01-15T06:57:52;4.85;;;2.50;;
23782;SDS011;12071;50.850;4.446;2024-01-15T07:00:18;8.48;;;2.95;;
23782;SDS011;12071;50.850;4.446;2024-01-15T07:02:44;9.65;;;3.50;;
23782;SDS011;12071;50.850;4.446;2024-01-15T07:05:10;6.78;;;3.20;;
23782;SDS011;12071;50.850;4.446;2024-01-15T07:07:36;7.65;;;3.30;;
23782;SDS011;12071;50.850;4.446;2024-01-15T07:10:02;6.25;;;3.50;;
23782;SDS011;12071;50.850;4.446;2024-01-15T07:12:28;10.32;;;3.70;;
23782;SDS011;12071;50.850;4.446;2024-01-15T07:14:55;7.75;;;3.65;;
23782;SDS011;12071;50.850;4.446;2024-01-15T07:17:21;10.43;;;3.95;;
23782;SDS011;12071;50.850;4.446;2024-01-15T07:19:47;8.52;;;4.20;;
23782;SDS011;12071;50.850;4.446;2024-01-15T07:22:12;8.85;;;4.43;;
23782;SDS011;12071;50.850;4.446;2024-01-15T07:24:38;10.25;;;4.47;;
23782;SDS011;12071;50.850;4.446;2024-01-15T07:27:04;13.77;;;5.32;;
23782;SDS011;12071;50.850;4.446;2024-01-15T07:29:30;9.00;;;4.45;;
23782;SDS011;12071;50.850;4.446;2024-01-15T07:31:58;11.18;;;4.38;;
23782;SDS011;12071;50.850;4.446;2024-01-15T07:34:23;10.82;;;4.15;;
23782;SDS011;12071;50.850;4.446;2024-01-15T07:36:49;8.07;;;4.25;;
23782;SDS011;12071;50.850;4.446;2024-01-15T07:39:14;6.85;;;4.32;;
23782;SDS011;12071;50.850;4.446;2024-01-15T07:41:40;9.43;;;4.75;;
23782;SDS011;12071;50.850;4.446;2024-01-15T07:44:05;9.68;;;4.63;;
23782;SDS011;12071;50.850;4.446;2024-01-15T07:46:31;9.93;;;4.90;;
23782;SDS011;12071;50.850;4.446;2024-01-15T07:48:57;10.80;;;5.55;;
23782;SDS011;12071;50.850;4.446;2024-01-15T07:51:23;12.00;;;5.95;;
23782;SDS011;12071;50.850;4.446;2024-01-15T07:53:49;10.75;;;6.63;;
23782;SDS011;12071;50.850;4.446;2024-01-15T07:56:15;11.57;;;6.32;;
23782;SDS011;12071;50.850;4.446;2024-01-15T07:58:41;11.23;;;6.50;;
23782;SDS011;12071;50.850;4.446;2024-01-15T08:01:07;10.93;;;6.32;;
23782;SDS011;12071;50.850;4.446;2024-01-15T08:03:32;14.98;;;6.68;;
23782;SDS011;12071;50.850;4.446;2024-01-15T08:05:58;12.02;;;7.35;;
23782;SDS011;12071;50.850;4.446;2024-01-15T08:08:25;12.40;;;7.20;;
23782;SDS011;12071;50.850;4.446;2024-01-15T08:10:53;13.75;;;7.03;;
23782;SDS011;12071;50.850;4.446;2024-01-15T08:13:19;12.77;;;6.65;;
23782;SDS011;12071;50.850;4.446;2024-01-15T08:15:45;10.55;;;6.25;;
23782;SDS011;12071;50.850;4.446;2024-01-15T08:18:11;13.93;;;6.75;;
23782;SDS011;12071;50.850;4.446;2024-01-15T08:20:37;12.98;;;6.65;;
23782;SDS011;12071;50.850;4.446;2024-01-15T08:23:03;10.25;;;6.22;;
23782;SDS011;12071;50.850;4.446;2024-01-15T08:25:29;12.05;;;6.20;;
23782;SDS011;12071;50.850;4.446;2024-01-15T08:27:56;12.52;;;5.72;;
23782;SDS011;12071;50.850;4.446;2024-01-15T08:30:22;11.00;;;5.60;;
23782;SDS011;12071;50.850;4.446;2024-01-15T08:32:52;10.25;;;4.68;;
23782;SDS011;12071;50.850;4.446;2024-01-15T08:35:18;13.75;;;5.00;;
23782;SDS011;12071;50.850;4.446;2024-01-15T08:37:47;9.48;;;4.45;;
23782;SDS011;12071;50.850;4.446;2024-01-15T08:40:17;10.13;;;4.53;;
23782;SDS011;12071;50.850;4.446;2024-01-15T08:42:43;9.30;;;3.80;;
23782;SDS011;12071;50.850;4.446;2024-01-15T08:45:09;9.73;;;3.17;;
23782;SDS011;12071;50.850;4.446;2024-01-15T08:47:38;10.18;;;4.18;;
23782;SDS011;12071;50.850;4.446;2024-01-15T08:50:03;8.13;;;3.47;;
23782;SDS011;12071;50.850;4.446;2024-01-15T08:52:30;12.52;;;3.17;;
23782;SDS011;12071;50.850;4.446;2024-01-15T08:54:58;12.65;;;3.55;;
23782;SDS011;12071;50.850;4.446;2024-01-15T08:57:25;10.02;;;3.08;;
23782;SDS011;12071;50.850;4.446;2024-01-15T08:59:51;11.77;;;2.75;;
23782;SDS011;12071;50.850;4.446;2024-01-15T09:02:17;7.75;;;2.40;;
23782;SDS011;12071;50.850;4.446;2024-01-15T09:04:42;12.55;;;2.67;;
23782;SDS011;12071;50.850;4.446;2024-01-15T09:07:08;2.72;;;1.75;;
23782;SDS011;12071;50.850;4.446;2024-01-15T09:09:33;6.00;;;1.90;;
23782;SDS011;12071;50.850;4.446;2024-01-15T09:12:00;11.73;;;1.88;;
23782;SDS011;12071;50.850;4.446;2024-01-15T09:14:25;9.38;;;2.50;;
23782;SDS011;12071;50.850;4.446;2024-01-15T09:16:52;8.35;;;2.20;;
23782;SDS011;12071;50.850;4.446;2024-01-15T09:19:18;9.88;;;1.80;;
23782;SDS011;12071;50.850;4.446;2024-01-15T09:21:44;11.45;;;2.22;;
23782;SDS011;12071;50.850;4.446;2024-01-15T09:24:09;8.50;;;1.67;;
23782;SDS011;12071;50.850;4.446;2024-01-15T09:26:35;9.90;;;1.80;;
23782;SDS011;12071;50.850;4.446;2024-01-15T09:29:01;7.13;;;2.15;;
23782;SDS011;12071;50.850;4.446;2024-01-15T09:31:27;10.02;;;1.88;;
23782;SDS011;12071;50.850;4.446;2024-01-15T09:33:53;8.00;;;1.58;;
23782;SDS011;12071;50.850;4.446;2024-01-15T09:36:22;6.25;;;1.92;;
23782;SDS011;12071;50.850;4.446;2024-01-15T09:38:48;10.02;;;1.50;;
23782;SDS011;12071;50.850;4.446;2024-01-15T09:41:14;7.95;;;2.00;;
23782;SDS011;12071;50.850;4.446;2024-01-15T09:43:40;8.90;;;2.35;;
23782;SDS011;12071;50.850;4.446;2024-01-15T09:46:06;9.95;;;1.67;;
23782;SDS011;12071;50.850;4.446;2024-01-15T09:48:31;4.50;;;1.38;;
23782;SDS011;12071;50.850;4.446;2024-01-15T09:50:59;7.53;;;1.75;;
23782;SDS011;12071;50.850;4.446;2024-01-15T09:53:26;8.98;;;1.77;;
23782;SDS011;12071;50.850;4.446;2024-01-15T09:55:52;9.75;;;1.75;;
23782;SDS011;12071;50.850;4.446;2024-01-15T09:58:18;7.97;;;1.52;;
23782;SDS011;12071;50.850;4.446;2024-01-15T10:00:44;6.90;;;1.83;;
23782;SDS011;12071;50.850;4.446;2024-01-15T10:03:12;10.23;;;1.83;;
23782;SDS011;12071;50.850;4.446;2024-01-15T10:05:38;8.45;;;1.88;;
23782;SDS011;12071;50.850;4.446;2024-01-15T10:08:04;10.48;;;1.80;;
23782;SDS011;12071;50.850;4.446;2024-01-15T10:10:30;5.82;;;1.33;;
23782;SDS011;12071;50.850;4.446;2024-01-15T10:12:56;10.65;;;1.27;;
23782;SDS011;12071;50.850;4.446;2024-01-15T10:15:24;8.73;;;1.88;;
23782;SDS011;12071;50.850;4.446;2024-01-15T10:17:51;12.15;;;1.77;;
23782;SDS011;12071;50.850;4.446;2024-01-15T10:20:17;7.32;;;1.90;;
23782;SDS011;12071;50.850;4.446;2024-01-15T10:22:43;8.40;;;1.88;;
23782;SDS011;12071;50.850;4.446;2024-01-15T10:25:13;6.63;;;1.90;;
23782;SDS011;12071;50.850;4.446;2024-01-15T10:27:42;7.18;;;1.65;;
23782;SDS011;12071;50.850;4.446;2024-01-15T10:30:11;7.95;;;1.60;;
23782;SDS011;12071;50.850;4.446;2024-01-15T10:32:39;9.55;;;1.92;;
23782;SDS011;12071;50.850;4.446;2024-01-15T10:35:06;4.90;;;1.35;;
23782;SDS011;12071;50.850;4.446;2024-01-15T10:37:33;12.20;;;1.83;;
23782;SDS011;12071;50.850;4.446;2024-01-15T10:40:01;9.98;;;1.90;;
23782;SDS011;12071;50.850;4.446;2024-01-15T10:42:30;5.55;;;1.50;;
23782;SDS011;12071;50.850;4.446;2024-01-15T10:44:55;7.78;;;1.70;;
23782;SDS011;12071;50.850;4.446;2024-01-15T10:47:21;6.20;;;1.30;;
23782;SDS011;12071;50.850;4.446;2024-01-15T10:49:48;7.35;;;1.73;;
23782;SDS011;12071;50.850;4.446;2024-01-15T10:52:14;7.38;;;1.40;;
23782;SDS011;12071;50.850;4.446;2024-01-15T10:54:40;9.13;;;1.70;;
23782;SDS011;12071;50.850;4.446;2024-01-15T10:57:08;8.18;;;1.58;;
23782;SDS011;12071;50.850;4.446;2024-01-15T10:59:34;8.02;;;1.60;;
23782;SDS011;12071;50.850;4.446;2024-01-15T11:02:01;8.45;;;2.05;;
23782;SDS011;12071;50.850;4.446;2024-01-15T11:04:27;8.93;;;1.88;;
23782;SDS011;12071;50.850;4.446;2024-01-15T11:06:53;5.80;;;1.30;;
23782;SDS011;12071;50.850;4.446;2024-01-15T11:09:20;8.93;;;1.88;;
23782;SDS011;12071;50.850;4.446;2024-01-15T11:11:46;8.18;;;1.27;;
23782;SDS011;12071;50.850;4.446;2024-01-15T11:17:10;10.82;;;1.83;;
23782;SDS011;12071;50.850;4.446;2024-01-15T11:19:42;10.48;;;1.80;;
23782;SDS011;12071;50.850;4.446;2024-01-15T11:25:01;8.43;;;1.67;;
23782;SDS011;12071;50.850;4.446;2024-01-15T11:27:44;9.27;;;1.67;;
23782;SDS011;12071;50.850;4.446;2024-01-15T11:30:16;6.35;;;1.15;;
23782;SDS011;12071;50.850;4.446;2024-01-15T11:32:45;9.50;;;1.63;;
23782;SDS011;12071;50.850;4.446;2024-01-15T11:35:12;7.70;;;1.30;;
23782;SDS011;12071;50.850;4.446;2024-01-15T11:40:21;8.77;;;1.20;;
23782;SDS011;12071;50.850;4.446;2024-01-15T11:42:48;7.85;;;1.00;;
23782;SDS011;12071;50.850;4.446;2024-01-15T11:45:21;9.95;;;1.35;;
23782;SDS011;12071;50.850;4.446;2024-01-15T11:50:28;6.82;;;1.33;;
23782;SDS011;12071;50.850;4.446;2024-01-15T11:53:02;7.53;;;1.45;;
23782;SDS011;12071;50.850;4.446;2024-01-15T11:55:35;3.80;;;1.02;;
23782;SDS011;12071;50.850;4.446;2024-01-15T11:58:07;3.30;;;0.90;;
23782;SDS011;12071;50.850;4.446;2024-01-15T12:00:43;7.15;;;1.38;;
23782;SDS011;12071;50.850;4.446;2024-01-15T12:03:10;7.55;;;0.98;;
23782;SDS011;12071;50.850;4.446;2024-01-15T12:05:39;4.57;;;1.23;;
23782;SDS011;12071;50.850;4.446;2024-01-15T12:08:05;5.80;;;1.30;;
23782;SDS011;12071;50.850;4.446;2024-01-15T12:10:35;3.30;;;1.03;;
23782;SDS011;12071;50.850;4.446;2024-01-15T12:13:05;7.22;;;1.13;;
23782;SDS011;12071;50.850;4.446;2024-01-15T12:15:34;3.03;;;1.13;;
23782;SDS011;12071;50.850;4.446;2024-01-15T12:18:01;7.22;;;1.30;;
23782;SDS011;12071;50.850;4.446;2024-01-15T12:20:28;6.82;;;0.88;;
23782;SDS011;12071;50.850;4.446;2024-01-15T12:22:55;4.47;;;1.48;;
23782;SDS011;12071;50.850;4.446;2024-01-15T12:25:21;5.22;;;1.30;;
23782;SDS011;12071;50.850;4.446;2024-01-15T12:27:52;7.18;;;1.27;;
23782;SDS011;12071;50.850;4.446;2024-01-15T12:30:18;9.10;;;1.33;;
23782;SDS011;12071;50.850;4.446;2024-01-15T12:32:44;5.78;;;1.10;;
23782;SDS011;12071;50.850;4.446;2024-01-15T12:35:12;8.52;;;1.20;;
23782;SDS011;12071;50.850;4.446;2024-01-15T12:37:42;5.07;;;1.13;;
23782;SDS011;12071;50.850;4.446;2024-01-15T12:40:09;4.95;;;1.17;;
23782;SDS011;12071;50.850;4.446;2024-01-15T12:42:35;6.75;;;1.15;;
23782;SDS011;12071;50.850;4.446;2024-01-15T12:45:02;4.60;;;1.05;;
23782;SDS011;12071;50.850;4.446;2024-01-15T12:47:30;7.30;;;1.25;;
23782;SDS011;12071;50.850;4.446;2024-01-15T12:49:57;4.43;;;0.95;;
23782;SDS011;12071;50.850;4.446;2024-01-15T12:52:26;5.03;;;0.80;;
23782;SDS011;12071;50.850;4.446;2024-01-15T12:54:52;6.25;;;1.50;;
23782;SDS011;12071;50.850;4.446;2024-01-15T12:57:18;9.05;;;2.25;;
23782;SDS011;12071;50.850;4.446;2024-01-15T12:59:44;6.38;;;1.20;;
23782;SDS011;12071;50.850;4.446;2024-01-15T13:02:13;7.53;;;2.15;;
23782;SDS011;12071;50.850;4.446;2024-01-15T13:04:39;7.47;;;1.50;;
23782;SDS011;12071;50.850;4.446;2024-01-15T13:07:08;10.20;;;1.38;;
23782;SDS011;12071;50.850;4.446;2024-01-15T13:09:34;7.90;;;1.10;;
23782;SDS011;12071;50.850;4.446;2024-01-15T13:12:01;5.38;;;1.20;;
23782;SDS011;12071;50.850;4.446;2024-01-15T13:14:27;4.43;;;1.15;;
23782;SDS011;12071;50.850;4.446;2024-01-15T13:16:53;9.68;;;1.55;;
23782;SDS011;12071;50.850;4.446;2024-01-15T13:19:19;4.93;;;1.00;;
23782;SDS011;12071;50.850;4.446;2024-01-15T13:21:48;7.32;;;1.33;;
23782;SDS011;12071;50.850;4.446;2024-01-15T13:24:15;9.27;;;1.27;;
23782;SDS011;12071;50.850;4.446;2024-01-15T13:26:40;11.60;;;1.50;;
23782;SDS011;12071;50.850;4.446;2024-01-15T13:29:06;6.20;;;1.30;;
23782;SDS011;12071;50.850;4.446;2024-01-15T13:31:32;10.15;;;1.60;;
23782;SDS011;12071;50.850;4.446;2024-01-15T13:33:58;5.22;;;1.30;;
23782;SDS011;12071;50.850;4.446;2024-01-15T13:36:24;6.65;;;1.42;;
23782;SDS011;12071;50.850;4.446;2024-01-15T13:38:51;12.55;;;1.85;;
23782;SDS011;12071;50.850;4.446;2024-01-15T13:41:18;8.00;;;1.40;;
23782;SDS011;12071;50.850;4.446;2024-01-15T13:43:48;6.53;;;1.35;;
23782;SDS011;12071;50.850;4.446;2024-01-15T13:46:15;9.45;;;1.33;;
23782;SDS011;12071;50.850;4.446;2024-01-15T13:48:42;6.68;;;1.88;;
23782;SDS011;12071;50.850;4.446;2024-01-15T13:51:08;11.07;;;2.15;;
23782;SDS011;12071;50.850;4.446;2024-01-15T13:53:34;7.03;;;1.85;;
23782;SDS011;12071;50.850;4.446;2024-01-15T13:56:00;8.48;;;1.10;;
23782;SDS011;12071;50.850;4.446;2024-01-15T13:58:25;11.38;;;1.67;;
23782;SDS011;12071;50.850;4.446;2024-01-15T14:00:51;5.72;;;0.90;;
23782;SDS011;12071;50.850;4.446;2024-01-15T14:03:17;2.17;;;0.65;;
23782;SDS011;12071;50.850;4.446;2024-01-15T14:05:44;2.80;;;0.70;;
23782;SDS011;12071;50.850;4.446;2024-01-15T14:08:09;3.00;;;0.80;;
23782;SDS011;12071;50.850;4.446;2024-01-15T14:10:35;2.22;;;0.60;;
23782;SDS011;12071;50.850;4.446;2024-01-15T14:13:02;3.55;;;0.52;;
23782;SDS011;12071;50.850;4.446;2024-01-15T14:15:28;2.45;;;0.98;;
23782;SDS011;12071;50.850;4.446;2024-01-15T14:17:54;2.40;;;1.35;;
23782;SDS011;12071;50.850;4.446;2024-01-15T14:20:19;2.42;;;0.98;;
23782;SDS011;12071;50.850;4.446;2024-01-15T14:22:45;5.22;;;1.50;;
23782;SDS011;12071;50.850;4.446;2024-01-15T14:25:10;4.85;;;1.70;;
23782;SDS011;12071;50.850;4.446;2024-01-15T14:27:36;6.35;;;1.58;;
23782;SDS011;12071;50.850;4.446;2024-01-15T14:30:02;7.47;;;1.92;;
23782;SDS011;12071;50.850;4.446;2024-01-15T14:32:28;6.32;;;1.90;;
23782;SDS011;12071;50.850;4.446;2024-01-15T14:34:54;5.85;;;1.98;;
23782;SDS011;12071;50.850;4.446;2024-01-15T14:37:21;12.35;;;2.08;;
23782;SDS011;12071;50.850;4.446;2024-01-15T14:39:47;10.90;;;1.98;;
23782;SDS011;12071;50.850;4.446;2024-01-15T14:42:12;4.60;;;1.23;;
23782;SDS011;12071;50.850;4.446;2024-01-15T14:44:39;5.35;;;1.33;;
23782;SDS011;12071;50.850;4.446;2024-01-15T14:47:06;1.77;;;0.70;;